createdAt,value
2022-09-12T00:02:04.475Z,11.64
2022-09-12T00:04:33.901Z,11.59
2022-09-12T00:07:01.032Z,11.54
2022-09-12T00:09:28.069Z,11.52
2022-09-12T00:11:54.987Z,11.56
2022-09-12T00:14:22.054Z,11.58
2022-09-12T00:16:49.197Z,11.54
2022-09-12T00:19:16.190Z,11.57
2022-09-12T00:21:43.221Z,11.54
2022-09-12T00:24:11.753Z,11.56
2022-09-12T00:26:39.354Z,11.53
2022-09-12T00:29:06.324Z,11.54
2022-09-12T00:31:40.878Z,11.57
2022-09-12T00:34:07.933Z,11.54
2022-09-12T00:36:35.181Z,11.49
2022-09-12T00:39:02.739Z,11.46
2022-09-12T00:41:39.114Z,11.46
2022-09-12T00:44:21.617Z,11.50
2022-09-12T00:46:58.927Z,11.46
2022-09-12T00:49:40.656Z,11.45
2022-09-12T00:52:09.809Z,11.42
2022-09-12T00:54:57.088Z,11.33
2022-09-12T00:57:31.527Z,11.23
2022-09-12T01:00:19.668Z,11.19
2022-09-12T01:02:55.146Z,11.20
2022-09-12T01:05:24.299Z,11.19
2022-09-12T01:07:52.510Z,11.16
2022-09-12T01:10:19.886Z,11.20
2022-09-12T01:12:48.091Z,11.21
2022-09-12T01:15:15.632Z,11.22
2022-09-12T01:18:14.223Z,11.14
2022-09-12T01:20:49.976Z,11.10
2022-09-12T01:23:53.943Z,11.07
2022-09-12T01:26:20.909Z,11.06
2022-09-12T01:29:02.891Z,11.01
2022-09-12T01:31:50.628Z,10.98
2022-09-12T01:34:26.543Z,10.90
2022-09-12T01:37:17.143Z,10.91
2022-09-12T01:40:16.788Z,10.85
2022-09-12T01:42:48.451Z,10.77
2022-09-12T01:45:33.941Z,10.66
2022-09-12T01:48:08.817Z,10.68
2022-09-12T01:50:47.240Z,10.70
2022-09-12T01:53:22.489Z,10.74
2022-09-12T01:55:57.107Z,10.75
2022-09-12T01:58:29.476Z,10.73
2022-09-12T02:01:06.540Z,10.68
2022-09-12T02:03:41.888Z,10.68
2022-09-12T02:06:15.692Z,10.69
2022-09-12T02:08:51.382Z,10.68
2022-09-12T02:11:19.420Z,10.69
2022-09-12T02:14:09.110Z,10.66
2022-09-12T02:16:42.284Z,10.58
2022-09-12T02:19:16.147Z,10.59
2022-09-12T02:21:49.699Z,10.58
2022-09-12T02:24:17.669Z,10.65
2022-09-12T02:26:49.837Z,10.65
2022-09-12T02:29:17.348Z,10.71
2022-09-12T02:31:49.606Z,10.63
2022-09-12T02:34:16.471Z,10.70
2022-09-12T02:37:10.337Z,10.69
2022-09-12T02:39:37.528Z,10.65
2022-09-12T02:42:06.044Z,10.61
2022-09-12T02:44:34.964Z,10.58
2022-09-12T02:47:10.867Z,10.64
2022-09-12T02:49:37.761Z,10.66
2022-09-12T02:52:04.748Z,10.63
2022-09-12T02:54:36.478Z,10.58
2022-09-12T02:57:23.037Z,10.60
2022-09-12T02:59:54.569Z,10.54
2022-09-12T03:02:46.073Z,10.53
2022-09-12T03:05:31.954Z,10.51
2022-09-12T03:08:28.043Z,10.49
2022-09-12T03:11:40.578Z,10.49
2022-09-12T03:14:36.910Z,10.39
2022-09-12T03:17:30.372Z,10.38
2022-09-12T03:20:11.611Z,10.37
2022-09-12T03:23:09.725Z,10.36
2022-09-12T03:25:44.396Z,10.36
2022-09-12T03:28:16.380Z,10.36
2022-09-12T03:30:46.268Z,10.28
2022-09-12T03:33:19.310Z,10.31
2022-09-12T03:35:47.812Z,10.32
2022-09-12T03:38:15.001Z,10.31
2022-09-12T03:40:42.712Z,10.30
2022-09-12T03:43:10.628Z,10.33
2022-09-12T03:45:37.996Z,10.38
2022-09-12T03:48:07.951Z,10.37
2022-09-12T03:50:37.433Z,10.26
2022-09-12T03:53:04.464Z,10.30
2022-09-12T03:55:31.491Z,10.24
2022-09-12T03:57:58.499Z,10.23
2022-09-12T04:00:25.952Z,10.27
2022-09-12T04:02:57.206Z,10.35
2022-09-12T04:05:25.606Z,10.32
2022-09-12T04:07:53.157Z,10.34
2022-09-12T04:10:20.375Z,10.40
2022-09-12T04:12:47.358Z,10.29
2022-09-12T04:15:16.848Z,10.30
2022-09-12T04:17:46.079Z,10.35
2022-09-12T04:20:13.138Z,10.32
2022-09-12T04:22:40.358Z,10.30
2022-09-12T04:25:08.067Z,10.43
2022-09-12T04:27:35.912Z,10.41
2022-09-12T04:30:03.677Z,10.41
2022-09-12T04:32:31.743Z,10.42
2022-09-12T04:34:58.709Z,10.41
2022-09-12T04:37:25.729Z,10.43
2022-09-12T04:39:57.791Z,10.40
2022-09-12T04:42:24.935Z,10.43
2022-09-12T04:44:52.199Z,10.51
2022-09-12T04:47:19.302Z,10.50
2022-09-12T04:49:46.219Z,10.57
2022-09-12T04:52:13.218Z,10.69
2022-09-12T04:54:40.426Z,10.73
2022-09-12T04:57:07.495Z,10.74
2022-09-12T04:59:34.455Z,10.80
2022-09-12T05:02:02.103Z,10.78
2022-09-12T05:04:29.137Z,10.80
2022-09-12T05:06:56.228Z,10.80
2022-09-12T05:09:23.241Z,10.85
2022-09-12T05:12:05.961Z,10.85
2022-09-12T05:14:33.549Z,10.90
2022-09-12T05:17:01.939Z,10.90
2022-09-12T05:19:30.882Z,10.90
2022-09-12T05:21:58.948Z,10.96
2022-09-12T05:24:26.099Z,10.95
2022-09-12T05:26:53.414Z,10.90
2022-09-12T05:29:20.289Z,10.97
2022-09-12T05:31:50.292Z,11.01
2022-09-12T05:38:48.370Z,11.08
2022-09-12T05:41:24.236Z,11.16
2022-09-12T05:43:59.203Z,11.13
2022-09-12T05:46:28.532Z,11.16
2022-09-12T05:48:56.958Z,11.17
2022-09-12T05:51:27.497Z,11.22
2022-09-12T05:53:57.492Z,11.27
2022-09-12T05:56:26.691Z,11.31
2022-09-12T05:58:58.470Z,11.36
2022-09-12T06:01:27.321Z,11.34
2022-09-12T06:03:57.035Z,11.36
2022-09-12T06:06:25.343Z,11.35
2022-09-12T06:08:54.790Z,11.47
2022-09-12T06:11:26.181Z,11.60
2022-09-12T06:13:53.691Z,11.71
2022-09-12T06:16:23.355Z,11.80
2022-09-12T06:18:53.781Z,11.90
2022-09-12T06:21:21.952Z,12.07
2022-09-12T06:23:49.663Z,12.11
2022-09-12T06:26:18.604Z,12.14
2022-09-12T06:28:46.231Z,12.23
2022-09-12T06:31:19.122Z,12.33
2022-09-12T06:33:48.977Z,12.33
2022-09-12T06:36:21.333Z,12.30
2022-09-12T06:38:51.582Z,12.21
2022-09-12T06:41:22.069Z,12.20
2022-09-12T06:43:49.185Z,12.21
2022-09-12T06:46:16.118Z,12.26
2022-09-12T06:48:43.142Z,12.29
2022-09-12T06:51:13.464Z,12.38
2022-09-12T06:53:41.357Z,12.31
2022-09-12T06:56:12.756Z,12.44
2022-09-12T06:58:40.671Z,12.66
2022-09-12T07:01:16.344Z,12.81
2022-09-12T07:03:48.898Z,12.96
2022-09-12T07:06:18.319Z,13.24
2022-09-12T07:08:46.000Z,13.49
2022-09-12T07:11:13.059Z,13.72
2022-09-12T07:13:41.624Z,13.92
2022-09-12T07:16:10.460Z,13.94
2022-09-12T07:18:39.312Z,13.89
2022-09-12T07:21:15.568Z,13.75
2022-09-12T07:23:42.987Z,13.46
2022-09-12T07:26:15.110Z,13.40
2022-09-12T07:28:42.627Z,13.10
2022-09-12T07:31:16.212Z,13.01
2022-09-12T07:33:44.218Z,12.87
2022-09-12T07:36:16.344Z,12.91
2022-09-12T07:38:44.186Z,12.91
2022-09-12T07:41:11.307Z,12.91
2022-09-12T07:43:38.359Z,12.77
2022-09-12T07:46:05.560Z,12.77
2022-09-12T07:48:32.617Z,12.85
2022-09-12T07:51:01.849Z,12.87
2022-09-12T07:53:33.153Z,12.97
2022-09-12T07:56:00.584Z,13.07
2022-09-12T07:58:27.574Z,13.01
2022-09-12T08:00:54.460Z,12.99
2022-09-12T08:03:21.366Z,12.98
2022-09-12T08:05:48.446Z,12.89
2022-09-12T08:08:15.479Z,12.92
2022-09-12T08:10:42.455Z,13.05
2022-09-12T08:13:10.814Z,12.85
2022-09-12T08:15:38.082Z,12.77
2022-09-12T08:18:05.264Z,12.88
2022-09-12T08:20:33.102Z,12.92
2022-09-12T08:23:00.066Z,12.73
2022-09-12T08:25:27.058Z,12.81
2022-09-12T08:27:54.437Z,12.79
2022-09-12T08:30:21.388Z,12.88
2022-09-12T08:32:48.366Z,12.96
2022-09-12T08:35:15.474Z,13.03
2022-09-12T08:37:42.359Z,13.06
2022-09-12T08:40:16.700Z,13.06
2022-09-12T08:43:22.154Z,13.28
2022-09-12T08:46:07.678Z,13.39
2022-09-12T08:48:35.640Z,13.60
2022-09-12T08:51:05.177Z,13.76
2022-09-12T08:53:36.675Z,14.13
2022-09-12T08:56:11.526Z,14.49
2022-09-12T08:58:44.647Z,14.58
2022-09-12T09:01:26.672Z,14.82
2022-09-12T09:04:06.057Z,14.69
2022-09-12T09:06:58.435Z,14.71
2022-09-12T09:09:59.310Z,14.75
2022-09-12T09:13:12.643Z,14.74
2022-09-12T09:15:45.901Z,14.58
2022-09-12T09:18:12.865Z,14.45
2022-09-12T09:20:47.498Z,14.55
2022-09-12T09:23:28.544Z,14.63
2022-09-12T09:26:09.440Z,14.57
2022-09-12T09:28:45.046Z,14.62
2022-09-12T09:31:16.048Z,14.58
2022-09-12T09:33:46.484Z,14.61
2022-09-12T09:36:31.981Z,14.65
2022-09-12T09:39:13.919Z,14.85
2022-09-12T09:41:57.171Z,14.91
2022-09-12T09:44:24.421Z,14.97
2022-09-12T09:46:55.692Z,15.03
2022-09-12T09:49:23.299Z,14.97
2022-09-12T09:51:50.450Z,15.09
2022-09-12T09:54:22.856Z,14.94
2022-09-12T09:56:50.665Z,14.94
2022-09-12T09:59:20.642Z,14.84
2022-09-12T10:01:56.732Z,14.76
2022-09-12T10:05:41.875Z,14.82
2022-09-12T10:08:09.051Z,14.82
2022-09-12T10:10:36.013Z,14.60
2022-09-12T10:13:22.994Z,14.39
2022-09-12T10:16:02.988Z,14.45
2022-09-12T10:18:42.414Z,14.66
2022-09-12T10:21:32.272Z,14.87
2022-09-12T10:24:24.965Z,14.67
2022-09-12T10:27:23.582Z,14.89
2022-09-12T10:29:55.642Z,14.70
2022-09-12T10:32:31.017Z,14.73
2022-09-12T10:35:04.552Z,14.76
2022-09-12T10:37:35.651Z,14.72
2022-09-12T10:40:04.499Z,14.89
2022-09-12T10:42:56.422Z,14.87
2022-09-12T10:45:29.114Z,14.77
2022-09-12T10:48:00.066Z,14.98
2022-09-12T10:50:43.690Z,14.93
2022-09-12T10:53:34.121Z,14.81
2022-09-12T10:56:09.773Z,14.93
2022-09-12T10:58:53.831Z,15.05
2022-09-12T11:01:34.060Z,15.15
2022-09-12T11:04:29.047Z,15.14
2022-09-12T11:07:11.700Z,14.82
2022-09-12T11:10:03.113Z,14.77
2022-09-12T11:13:12.157Z,14.88
2022-09-12T11:16:12.730Z,14.78
2022-09-12T11:18:54.882Z,14.94
2022-09-12T11:22:05.640Z,15.07
2022-09-12T11:25:51.963Z,15.22
2022-09-12T11:28:18.828Z,15.29
2022-09-12T11:31:16.685Z,15.40
2022-09-12T11:33:54.954Z,15.45
2022-09-12T11:36:38.371Z,15.59
2022-09-12T11:39:24.276Z,15.59
2022-09-12T11:41:58.177Z,15.43
2022-09-12T11:44:29.808Z,15.40
2022-09-12T11:46:57.673Z,15.29
2022-09-12T11:49:35.534Z,15.21
2022-09-12T11:52:11.917Z,15.25
2022-09-12T11:54:59.624Z,15.17
2022-09-12T11:57:34.221Z,15.10
2022-09-12T12:00:15.105Z,15.16
2022-09-12T12:02:48.480Z,15.13
2022-09-12T12:05:52.251Z,14.99
2022-09-12T12:08:25.217Z,14.88
2022-09-12T12:11:03.192Z,14.82
2022-09-12T12:13:34.487Z,14.72
2022-09-12T12:16:29.303Z,14.83
2022-09-12T12:18:59.723Z,14.84
2022-09-12T12:21:29.596Z,14.96
2022-09-12T12:24:08.733Z,15.02
2022-09-12T12:26:39.019Z,14.93
2022-09-12T12:29:10.500Z,15.16
2022-09-12T12:32:05.863Z,15.28
2022-09-12T12:34:32.847Z,15.19
2022-09-12T12:37:19.863Z,15.12
2022-09-12T12:39:51.112Z,15.03
2022-09-12T12:42:33.849Z,14.94
2022-09-12T12:45:10.265Z,14.98
2022-09-12T12:47:44.862Z,14.68
2022-09-12T12:50:20.844Z,14.64
2022-09-12T12:52:56.335Z,14.64
2022-09-12T12:55:39.739Z,14.70
2022-09-12T12:58:25.750Z,14.72
2022-09-12T13:01:23.738Z,14.51
2022-09-12T13:04:04.558Z,14.67
2022-09-12T13:06:38.346Z,14.81
2022-09-12T13:09:21.627Z,14.83
2022-09-12T13:11:58.967Z,14.79
2022-09-12T13:14:43.664Z,14.79
2022-09-12T13:17:36.223Z,14.86
2022-09-12T13:20:28.359Z,14.87
2022-09-12T13:22:56.891Z,14.91
2022-09-12T13:25:30.995Z,14.88
2022-09-12T13:28:13.368Z,14.86
2022-09-12T13:30:47.948Z,14.76
2022-09-12T13:33:25.989Z,14.76
2022-09-12T13:36:10.045Z,14.73
2022-09-12T13:38:55.375Z,14.66
2022-09-12T13:41:33.494Z,14.44
2022-09-12T13:44:02.426Z,14.36
2022-09-12T13:46:34.366Z,14.35
2022-09-12T13:49:11.404Z,14.29
2022-09-12T13:51:39.199Z,14.38
2022-09-12T13:54:06.626Z,14.39
2022-09-12T13:56:33.788Z,14.40
2022-09-12T13:59:04.474Z,14.35
2022-09-12T14:01:40.739Z,14.33
2022-09-12T14:04:45.585Z,14.31
2022-09-12T14:07:20.755Z,14.27
2022-09-12T14:10:00.712Z,14.20
2022-09-12T14:12:32.540Z,14.15
2022-09-12T14:14:59.780Z,14.04
2022-09-12T14:17:39.735Z,13.95
2022-09-12T14:20:18.623Z,13.93
2022-09-12T14:22:51.045Z,13.82
2022-09-12T14:25:21.147Z,13.80
2022-09-12T14:27:54.146Z,13.78
2022-09-12T14:30:30.615Z,13.78
2022-09-12T14:33:09.692Z,13.86
2022-09-12T14:35:43.835Z,13.94
2022-09-12T14:38:17.989Z,13.96
2022-09-12T14:41:00.274Z,13.91
2022-09-12T14:43:29.052Z,13.90
2022-09-12T14:46:19.203Z,13.84
2022-09-12T14:49:31.510Z,13.80
2022-09-12T14:52:05.199Z,13.71
2022-09-12T14:54:33.135Z,13.75
2022-09-12T14:57:07.879Z,13.74
2022-09-12T14:59:35.785Z,13.67
2022-09-12T15:02:21.229Z,13.58
2022-09-12T15:05:15.600Z,13.49
2022-09-12T15:07:53.840Z,13.33
2022-09-12T15:10:36.737Z,13.22
2022-09-12T15:13:09.856Z,13.17
2022-09-12T15:15:38.579Z,13.13
2022-09-12T15:18:06.835Z,13.08
2022-09-12T15:20:36.984Z,13.10
2022-09-12T15:23:05.349Z,13.03
2022-09-12T15:25:32.473Z,13.00
2022-09-12T15:28:00.524Z,12.93
2022-09-12T15:30:27.736Z,13.07
2022-09-12T15:32:55.162Z,13.06
2022-09-12T15:35:25.189Z,13.07
2022-09-12T15:37:52.251Z,13.13
2022-09-12T15:40:19.289Z,13.13
2022-09-12T15:42:46.445Z,13.14
2022-09-12T15:45:22.804Z,13.12
2022-09-12T15:47:49.879Z,13.11
2022-09-12T15:50:19.514Z,13.06
2022-09-12T15:52:46.899Z,13.01
2022-09-12T15:55:20.295Z,12.96
2022-09-12T15:57:49.778Z,12.91
2022-09-12T16:00:18.280Z,12.86
2022-09-12T16:02:47.427Z,12.81
2022-09-12T16:05:17.911Z,12.76
2022-09-12T16:07:45.336Z,12.70
2022-09-12T16:10:18.216Z,12.66
2022-09-12T16:12:45.850Z,12.60
2022-09-12T16:15:16.069Z,12.56
2022-09-12T16:17:43.505Z,12.50
2022-09-12T16:20:13.316Z,12.50
2022-09-12T16:22:40.466Z,12.43
2022-09-12T16:25:37.811Z,12.41
2022-09-12T16:28:05.998Z,12.37
2022-09-12T16:30:33.827Z,12.34
2022-09-12T16:33:01.242Z,12.32
2022-09-12T16:35:28.935Z,12.23
2022-09-12T16:37:55.921Z,12.20
2022-09-12T16:40:23.689Z,12.11
2022-09-12T16:42:50.647Z,12.10
2022-09-12T16:45:17.649Z,12.03
2022-09-12T16:47:44.652Z,11.99
2022-09-12T16:50:11.592Z,11.93
2022-09-12T16:52:38.597Z,11.94
2022-09-12T16:55:06.084Z,11.97
2022-09-12T16:57:33.322Z,12.00
2022-09-12T17:00:00.316Z,12.02
2022-09-12T17:02:27.328Z,12.04
2022-09-12T17:04:54.543Z,12.07
2022-09-12T17:07:21.530Z,12.12
2022-09-12T17:09:48.616Z,12.06
2022-09-12T17:12:16.574Z,12.08
2022-09-12T17:14:45.665Z,12.16
2022-09-12T17:17:13.102Z,12.09
2022-09-12T17:19:40.419Z,12.12
2022-09-12T17:22:07.418Z,12.15
2022-09-12T17:24:34.726Z,12.14
2022-09-12T17:27:01.931Z,12.12
2022-09-12T17:29:29.079Z,12.14
2022-09-12T17:31:56.320Z,12.17
2022-09-12T17:34:23.684Z,12.14
2022-09-12T17:36:50.752Z,12.03
2022-09-12T17:39:17.907Z,12.12
2022-09-12T17:41:46.279Z,12.15
2022-09-12T17:44:15.444Z,12.14
2022-09-12T17:46:44.819Z,12.13
2022-09-12T17:49:16.476Z,12.14
2022-09-12T17:51:44.373Z,12.21
2022-09-12T17:54:16.225Z,12.22
2022-09-12T17:56:48.829Z,12.21
2022-09-12T17:59:21.539Z,12.21
2022-09-12T18:02:09.521Z,12.14
2022-09-12T18:04:37.538Z,12.16
2022-09-12T18:07:08.533Z,12.16
2022-09-12T18:09:36.924Z,12.09
2022-09-12T18:12:04.372Z,12.09
2022-09-12T18:14:31.846Z,12.18
2022-09-12T18:17:00.428Z,12.22
2022-09-12T18:19:29.342Z,12.17
2022-09-12T18:21:57.790Z,12.13
2022-09-12T18:24:25.171Z,12.19
2022-09-12T18:26:52.473Z,12.15
2022-09-12T18:29:20.189Z,12.18
2022-09-12T18:31:47.741Z,12.19
2022-09-12T18:34:16.298Z,12.11
2022-09-12T18:36:47.032Z,12.14
2022-09-12T18:39:14.972Z,12.15
2022-09-12T18:41:42.555Z,12.12
2022-09-12T18:44:13.097Z,12.08
2022-09-12T18:46:40.310Z,12.10
2022-09-12T18:49:09.626Z,12.08
2022-09-12T18:51:37.771Z,11.98
2022-09-12T18:54:07.204Z,11.96
2022-09-12T18:56:38.159Z,11.91
2022-09-12T18:59:07.285Z,11.93
2022-09-12T19:01:38.527Z,11.87
2022-09-12T19:04:17.955Z,11.84
2022-09-12T19:06:48.122Z,11.79
2022-09-12T19:09:18.372Z,11.81
2022-09-12T19:11:50.126Z,11.85
2022-09-12T19:14:19.844Z,11.75
2022-09-12T19:16:48.030Z,11.73
2022-09-12T19:19:15.618Z,11.81
2022-09-12T19:21:43.694Z,11.83
2022-09-12T19:24:15.201Z,11.75
2022-09-12T19:26:44.909Z,11.72
2022-09-12T19:29:12.434Z,11.77
2022-09-12T19:31:43.395Z,11.76
2022-09-12T19:34:11.338Z,11.77
2022-09-12T19:36:47.070Z,11.72
2022-09-12T19:39:16.862Z,11.75
2022-09-12T19:41:48.804Z,11.71
2022-09-12T19:44:15.868Z,11.73
2022-09-12T19:46:43.832Z,11.77
2022-09-12T19:49:13.081Z,11.75
2022-09-12T19:51:43.179Z,11.72
2022-09-12T19:54:10.536Z,11.70
2022-09-12T19:56:37.926Z,11.74
2022-09-12T19:59:07.366Z,11.71
2022-09-12T20:01:37.323Z,11.72
2022-09-12T20:04:05.166Z,11.72
2022-09-12T20:06:32.302Z,11.76
2022-09-12T20:09:00.139Z,11.75
2022-09-12T20:11:27.267Z,11.70
2022-09-12T20:13:54.478Z,11.75
2022-09-12T20:16:29.087Z,11.77
2022-09-12T20:19:08.903Z,11.72
2022-09-12T20:21:37.041Z,11.72
2022-09-12T20:24:10.735Z,11.72
2022-09-12T20:26:37.827Z,11.65
2022-09-12T20:29:06.218Z,11.72
2022-09-12T20:31:34.455Z,11.73
2022-09-12T20:34:01.561Z,11.78
2022-09-12T20:36:28.684Z,11.82
2022-09-12T20:38:58.929Z,11.86
2022-09-12T20:41:31.966Z,11.86
2022-09-12T20:44:01.714Z,11.88
2022-09-12T20:46:29.168Z,11.91
2022-09-12T20:48:59.911Z,11.94
2022-09-12T20:51:27.398Z,11.95
2022-09-12T20:53:59.529Z,11.95
2022-09-12T20:56:29.083Z,11.99
2022-09-12T20:58:59.125Z,11.97
2022-09-12T21:01:27.936Z,11.99
2022-09-12T21:03:55.376Z,11.99
2022-09-12T21:06:22.774Z,11.99
2022-09-12T21:08:50.603Z,11.99
2022-09-12T21:11:18.931Z,11.94
2022-09-12T21:13:48.488Z,11.95
2022-09-12T21:16:18.776Z,11.95
2022-09-12T21:18:47.618Z,11.96
2022-09-12T21:21:15.895Z,11.95
2022-09-12T21:23:42.915Z,11.90
2022-09-12T21:26:10.466Z,11.89
2022-09-12T21:28:37.703Z,11.88
2022-09-12T21:31:04.984Z,11.88
2022-09-12T21:33:32.051Z,11.89
2022-09-12T21:36:04.460Z,11.89
2022-09-12T21:38:32.156Z,11.91
2022-09-12T21:41:09.319Z,11.88
2022-09-12T21:43:38.352Z,11.85
2022-09-12T21:46:06.492Z,11.88
2022-09-12T21:48:34.053Z,11.88
2022-09-12T21:51:01.333Z,11.89
2022-09-12T21:53:28.971Z,11.86
2022-09-12T21:56:04.841Z,11.87
2022-09-12T21:58:31.941Z,11.87
2022-09-12T22:00:59.877Z,11.88
2022-09-12T22:03:27.916Z,11.87
2022-09-12T22:06:03.065Z,11.91
2022-09-12T22:08:32.339Z,11.88
2022-09-12T22:11:02.290Z,11.85
2022-09-12T22:13:33.922Z,11.85
2022-09-12T22:16:03.189Z,11.85
2022-09-12T22:18:34.519Z,11.84
2022-09-12T22:21:07.544Z,11.81
2022-09-12T22:23:53.013Z,11.79
2022-09-12T22:26:20.559Z,11.70
2022-09-12T22:28:48.008Z,11.66
2022-09-12T22:31:17.990Z,11.61
2022-09-12T22:33:48.162Z,11.60
2022-09-12T22:36:15.597Z,11.56
2022-09-12T22:38:42.698Z,11.52
2022-09-12T22:41:13.414Z,11.48
2022-09-12T22:43:40.998Z,11.47
2022-09-12T22:46:09.591Z,11.43
2022-09-12T22:48:39.127Z,11.42
2022-09-12T22:51:09.520Z,11.43
2022-09-12T22:53:37.769Z,11.44
2022-09-12T22:56:05.837Z,11.45
2022-09-12T22:58:33.847Z,11.44
2022-09-12T23:01:00.944Z,11.43
2022-09-12T23:03:28.175Z,11.48
2022-09-12T23:05:55.239Z,11.48
2022-09-12T23:08:22.260Z,11.50
2022-09-12T23:10:49.748Z,11.44
2022-09-12T23:13:16.996Z,11.45
2022-09-12T23:15:43.891Z,11.42
2022-09-12T23:18:10.851Z,11.37
2022-09-12T23:20:38.239Z,11.36
2022-09-12T23:23:05.348Z,11.36
2022-09-12T23:25:32.354Z,11.30
2022-09-12T23:27:59.494Z,11.32
2022-09-12T23:30:26.665Z,11.30
2022-09-12T23:32:53.589Z,11.30
2022-09-12T23:35:20.485Z,11.29
2022-09-12T23:37:47.967Z,11.27
2022-09-12T23:40:15.186Z,11.29
2022-09-12T23:42:42.254Z,11.27
2022-09-12T23:45:10.438Z,11.23
2022-09-12T23:47:37.513Z,11.23
2022-09-12T23:50:04.778Z,11.18
2022-09-12T23:52:31.758Z,11.17
2022-09-12T23:55:00.849Z,11.14
2022-09-12T23:57:30.142Z,11.09
2022-09-12T23:59:57.196Z,11.06
